Time;durP1;ratioP1;P1;durP2;ratioP2;P2;SDS_P1;SDS_P2;PMS_P1;PMS_P2;Temp;Humidity;BMP_temperature;BMP_pressure;BME280_temperature;BME280_humidity;BME280_pressure;Samples;Min_cycle;Max_cycle;Signal;HPM_P1;HPM_P2
2023/07/08 00:00:11;;;;;;;5.85;2.88;;;;;;;28.12;47.09;99215.28;2060544;28;20057;-52
2023/07/08 00:01:14;;;;;;;5.90;2.72;;;;;;;28.12;47.08;99209.84;2062589;28;20062;-47
2023/07/08 00:02:17;;;;;;;5.25;3.08;;;;;;;28.11;47.34;99202.75;2064182;28;20057;-46
2023/07/08 00:03:18;;;;;;;3.40;3.08;;;;;;;28.10;47.31;99195.63;2063281;28;20050;-48
2023/07/08 00:04:19;;;;;;;7.25;3.10;;;;;;;28.11;47.57;99191.84;2063283;28;20046;-49
2023/07/08 00:05:23;;;;;;;4.72;2.90;;;;;;;28.07;47.63;99180.59;2062082;28;20042;-50
2023/07/08 00:06:27;;;;;;;3.70;2.72;;;;;;;28.10;47.47;99183.91;2061429;28;20534;-48
2023/07/08 00:07:28;;;;;;;4.82;3.03;;;;;;;28.15;47.11;99178.50;2062754;28;20873;-49
2023/07/08 00:08:30;;;;;;;3.22;2.83;;;;;;;28.15;47.06;99171.16;2061219;28;20046;-47
2023/07/08 00:09:31;;;;;;;5.10;3.35;;;;;;;28.15;47.23;99165.69;2062110;28;20043;-48
2023/07/08 00:10:32;;;;;;;6.35;3.22;;;;;;;28.12;46.96;99168.13;2062854;28;20115;-50
2023/07/08 00:11:33;;;;;;;4.97;3.00;;;;;;;28.01;47.18;99158.97;2063032;28;20607;-46
2023/07/08 00:12:35;;;;;;;4.53;3.10;;;;;;;27.90;47.18;99146.28;2061326;28;20132;-49
2023/07/08 00:13:36;;;;;;;5.95;3.05;;;;;;;27.82;47.38;99142.91;2060187;28;20050;-48
2023/07/08 00:14:39;;;;;;;5.50;2.35;;;;;;;27.85;47.28;99134.22;2062958;28;20423;-46
2023/07/08 00:15:41;;;;;;;6.25;2.42;;;;;;;27.85;47.31;99130.69;2064447;28;20091;-47
2023/07/08 00:16:42;;;;;;;5.60;2.70;;;;;;;27.92;47.24;99122.34;2061577;28;20065;-46
2023/07/08 00:17:43;;;;;;;3.22;2.63;;;;;;;27.97;46.72;99106.88;2062436;28;20484;-49
2023/07/08 00:18:45;;;;;;;6.97;2.63;;;;;;;28.01;47.13;99110.72;2060981;28;20073;-49
2023/07/08 00:19:47;;;;;;;6.43;2.30;;;;;;;27.99;47.18;99106.59;2061517;28;20057;-47
2023/07/08 00:20:51;;;;;;;4.22;2.40;;;;;;;28.01;47.10;99102.53;2061450;28;20050;-47
2023/07/08 00:21:52;;;;;;;5.45;2.45;;;;;;;28.01;47.55;99112.63;2062613;28;20074;-49
2023/07/08 00:22:54;;;;;;;4.07;2.42;;;;;;;27.98;47.57;99126.75;2064137;28;20050;-52
2023/07/08 00:23:55;;;;;;;4.45;2.72;;;;;;;28.00;47.85;99136.34;2063883;28;20055;-49
2023/07/08 00:24:57;;;;;;;3.67;2.88;;;;;;;28.01;47.66;99131.72;2061927;28;20050;-49
2023/07/08 00:25:58;;;;;;;3.40;2.38;;;;;;;27.99;47.97;99122.94;2060564;28;20079;-49
2023/07/08 00:26:59;;;;;;;3.25;2.53;;;;;;;27.99;47.90;99126.50;2062380;28;20137;-52
2023/07/08 00:28:00;;;;;;;6.55;3.05;;;;;;;27.99;47.50;99128.41;2063954;28;20056;-46
2023/07/08 00:29:03;;;;;;;4.18;2.70;;;;;;;27.99;47.74;99128.41;2059500;28;20527;-50
2023/07/08 00:30:25;;;;;;;3.65;2.42;;;;;;;27.94;47.66;99131.88;2061975;28;20108;-51
2023/07/08 00:31:27;;;;;;;7.00;2.95;;;;;;;27.97;47.81;99136.84;2061471;28;20539;-50
2023/07/08 00:32:28;;;;;;;3.60;2.67;;;;;;;27.99;47.53;99142.84;2057490;28;20093;-47
2023/07/08 00:33:30;;;;;;;4.38;2.78;;;;;;;28.01;47.60;99142.63;2060739;28;20042;-48
2023/07/08 00:34:31;;;;;;;6.38;3.25;;;;;;;28.04;47.29;99147.56;2062762;28;20084;-46
2023/07/08 00:35:35;;;;;;;3.72;2.95;;;;;;;28.05;47.35;99149.19;2064729;28;20065;-46
2023/07/08 00:36:36;;;;;;;7.57;3.05;;;;;;;28.06;47.61;99148.97;2062511;28;21243;-47
2023/07/08 00:37:37;;;;;;;4.40;2.85;;;;;;;28.06;47.50;99142.69;2060470;28;20140;-49
2023/07/08 00:38:44;;;;;;;5.03;3.50;;;;;;;28.05;47.69;99151.91;2057162;28;20046;-46
2023/07/08 00:39:45;;;;;;;4.63;2.28;;;;;;;28.05;47.50;99143.75;2062298;28;20050;-48
2023/07/08 00:40:52;;;;;;;2.92;2.63;;;;;;;28.05;47.40;99130.94;2064839;28;20053;-46
2023/07/08 00:41:54;;;;;;;4.60;2.55;;;;;;;28.06;47.36;99139.94;2060396;28;20050;-46
2023/07/08 00:42:57;;;;;;;5.55;3.10;;;;;;;28.07;47.46;99130.69;2062180;28;20069;-48
2023/07/08 00:43:59;;;;;;;6.05;2.65;;;;;;;28.03;47.66;99124.91;2060685;28;20066;-48
2023/07/08 00:45:01;;;;;;;3.17;2.65;;;;;;;28.04;47.38;99125.75;2056100;28;20056;-49
2023/07/08 00:46:23;;;;;;;5.82;2.80;;;;;;;28.05;47.55;99121.94;2059239;28;20054;-48
2023/07/08 00:47:26;;;;;;;4.18;2.85;;;;;;;28.02;48.02;99120.53;2061496;28;20054;-48
2023/07/08 00:48:30;;;;;;;5.15;3.00;;;;;;;28.02;48.03;99115.06;2061802;28;20722;-48
2023/07/08 00:49:40;;;;;;;3.63;2.80;;;;;;;28.02;47.60;99122.44;2061899;28;20852;-47
2023/07/08 00:50:41;;;;;;;5.13;2.67;;;;;;;27.99;47.97;99109.31;2058095;28;20061;-46
2023/07/08 00:51:43;;;;;;;3.20;2.50;;;;;;;28.00;47.84;99114.53;2060047;28;20073;-47
2023/07/08 00:52:45;;;;;;;3.53;2.40;;;;;;;27.99;47.90;99103.88;2063989;28;20054;-46
2023/07/08 00:53:47;;;;;;;3.17;2.22;;;;;;;27.99;48.07;99101.97;2064412;28;20049;-48
2023/07/08 00:54:53;;;;;;;3.78;2.63;;;;;;;27.98;47.77;99100.31;2062274;28;20133;-46
2023/07/08 00:56:00;;;;;;;4.28;2.85;;;;;;;27.98;47.98;99099.50;2062633;28;20045;-48
2023/07/08 00:57:03;;;;;;;3.53;2.60;;;;;;;27.97;47.68;99106.00;2057779;28;20081;-47
2023/07/08 00:58:05;;;;;;;3.70;2.65;;;;;;;27.98;47.62;99110.41;2062932;28;20546;-49
2023/07/08 00:59:09;;;;;;;2.67;2.33;;;;;;;27.98;47.56;99105.78;2060670;28;20783;-48
2023/07/08 01:00:15;;;;;;;2.92;2.60;;;;;;;27.99;47.84;99106.59;2061720;28;20042;-49
2023/07/08 01:01:18;;;;;;;3.25;2.95;;;;;;;27.95;47.87;99113.66;2061169;28;20057;-48
2023/07/08 01:02:25;;;;;;;5.43;2.97;;;;;;;27.97;47.57;99109.59;2064587;28;20045;-48
2023/07/08 01:03:29;;;;;;;6.28;2.88;;;;;;;27.99;47.71;99112.03;2056919;28;20053;-48
2023/07/08 01:04:35;;;;;;;4.55;2.75;;;;;;;28.02;47.49;99111.53;2060114;28;20066;-47
2023/07/08 01:05:38;;;;;;;3.38;2.58;;;;;;;28.01;47.51;99112.63;2062896;28;20046;-48
2023/07/08 01:06:43;;;;;;;3.17;2.45;;;;;;;28.00;47.53;99114.53;2063436;28;20140;-46
2023/07/08 01:07:48;;;;;;;3.53;2.83;;;;;;;27.98;47.39;99108.50;2061642;28;20057;-48
2023/07/08 01:08:53;;;;;;;3.42;2.70;;;;;;;27.97;47.47;99111.47;2060066;28;20054;-48
2023/07/08 01:10:01;;;;;;;4.60;2.83;;;;;;;28.00;47.29;99110.94;2061654;28;20115;-52
2023/07/08 01:11:05;;;;;;;3.25;2.17;;;;;;;27.98;47.44;99116.69;2061572;28;23081;-45
2023/07/08 01:12:11;;;;;;;4.00;2.85;;;;;;;27.97;47.59;99114.19;2060876;28;20049;-46
2023/07/08 01:13:15;;;;;;;4.22;2.53;;;;;;;27.93;48.06;99118.50;2063919;28;20144;-47
2023/07/08 01:14:20;;;;;;;4.63;3.28;;;;;;;27.96;47.69;99123.47;2063012;28;20049;-47
2023/07/08 01:15:26;;;;;;;6.15;2.42;;;;;;;27.93;47.64;99127.50;2058499;28;20097;-51
2023/07/08 01:16:29;;;;;;;3.63;2.42;;;;;;;27.93;47.80;99126.69;2062805;28;20046;-50
2023/07/08 01:17:32;;;;;;;4.35;2.47;;;;;;;27.90;47.76;99125.28;2059707;28;20046;-49
2023/07/08 01:18:35;;;;;;;3.60;2.70;;;;;;;27.94;47.33;99123.69;2064806;28;20057;-49
2023/07/08 01:19:38;;;;;;;3.13;2.60;;;;;;;27.96;47.93;99134.38;2061655;28;20046;-45
2023/07/08 01:20:39;;;;;;;3.33;2.60;;;;;;;27.93;47.71;99129.41;2061354;28;20765;-45
2023/07/08 01:21:47;;;;;;;4.35;2.72;;;;;;;27.93;47.46;99124.78;2057870;28;20856;-45
2023/07/08 01:22:47;;;;;;;2.63;2.35;;;;;;;27.91;47.83;99121.47;2062571;28;20081;-52
2023/07/08 01:23:49;;;;;;;5.60;2.45;;;;;;;27.92;47.34;99117.69;2063581;28;20049;-49
2023/07/08 01:24:50;;;;;;;4.38;2.63;;;;;;;27.93;47.65;99116.59;2059698;28;20050;-47
2023/07/08 01:25:52;;;;;;;5.10;3.17;;;;;;;27.93;47.48;99121.25;2061605;28;20169;-47
2023/07/08 01:26:54;;;;;;;6.03;2.55;;;;;;;27.90;47.87;99122.56;2060261;28;20057;-48
2023/07/08 01:27:57;;;;;;;3.10;2.30;;;;;;;27.88;47.85;99123.91;2057319;28;20056;-47
2023/07/08 01:28:59;;;;;;;5.80;2.80;;;;;;;27.89;47.71;99131.00;2062315;28;20057;-48
2023/07/08 01:30:03;;;;;;;3.88;2.75;;;;;;;27.89;47.87;99133.72;2062035;28;20069;-48
2023/07/08 01:31:05;;;;;;;3.72;2.80;;;;;;;27.89;47.89;99131.84;2062961;28;20077;-48
2023/07/08 01:32:07;;;;;;;3.53;2.60;;;;;;;27.92;48.04;99135.97;2062790;28;20057;-45
2023/07/08 01:33:16;;;;;;;4.38;2.88;;;;;;;27.94;47.99;99131.88;2062999;28;20703;-48
2023/07/08 01:34:18;;;;;;;3.78;2.55;;;;;;;27.92;47.96;99127.78;2057751;28;20069;-48
2023/07/08 01:35:20;;;;;;;3.55;2.65;;;;;;;27.88;48.24;99132.06;2062063;28;20078;-46
2023/07/08 01:36:22;;;;;;;3.60;2.53;;;;;;;27.92;48.03;99138.69;2062351;28;20426;-47
2023/07/08 01:37:27;;;;;;;3.30;2.38;;;;;;;27.91;48.11;99134.28;2062199;28;20058;-47
2023/07/08 01:38:29;;;;;;;3.92;3.03;;;;;;;27.84;48.13;99135.31;2060877;28;20054;-48
2023/07/08 01:39:31;;;;;;;3.25;2.70;;;;;;;27.83;48.02;99138.28;2062166;28;20042;-46
2023/07/08 01:40:35;;;;;;;5.85;2.92;;;;;;;27.73;48.21;99138.94;2055787;28;20076;-47
2023/07/08 01:41:36;;;;;;;3.25;2.38;;;;;;;27.66;47.94;99141.00;2059058;28;20046;-47
2023/07/08 01:42:37;;;;;;;5.63;2.85;;;;;;;27.72;48.07;99144.63;2059908;28;20050;-47
2023/07/08 01:43:39;;;;;;;4.72;2.85;;;;;;;27.75;47.74;99133.22;2064262;28;20061;-47
2023/07/08 01:44:40;;;;;;;5.50;2.55;;;;;;;27.77;48.17;99133.81;2062859;28;20081;-47
2023/07/08 01:45:43;;;;;;;4.95;2.58;;;;;;;27.82;47.89;99134.72;2061033;28;20562;-46
2023/07/08 01:46:44;;;;;;;3.30;2.63;;;;;;;27.82;47.79;99134.72;2057517;28;20050;-48
2023/07/08 01:47:50;;;;;;;4.10;2.67;;;;;;;27.83;47.84;99130.94;2062938;28;20080;-46
2023/07/08 01:48:54;;;;;;;2.92;2.58;;;;;;;27.86;48.13;99129.63;2060842;28;20046;-47
2023/07/08 01:49:55;;;;;;;2.72;2.53;;;;;;;27.85;47.89;99134.22;2061583;28;20057;-47
2023/07/08 01:51:00;;;;;;;4.38;2.38;;;;;;;27.87;47.67;99133.16;2059698;28;20050;-50
2023/07/08 01:52:02;;;;;;;6.32;2.80;;;;;;;27.86;47.48;99129.63;2060852;28;20061;-46
2023/07/08 01:53:10;;;;;;;4.53;2.72;;;;;;;27.87;47.55;99131.25;2058451;28;20091;-46
2023/07/08 01:54:11;;;;;;;4.03;2.80;;;;;;;27.84;47.70;99124.41;2062704;28;20075;-45
2023/07/08 01:55:12;;;;;;;4.93;2.22;;;;;;;27.83;47.66;99130.94;2061246;28;20054;-47
2023/07/08 01:56:14;;;;;;;4.28;2.78;;;;;;;27.85;47.69;99125.22;2064890;28;20544;-47
2023/07/08 01:57:16;;;;;;;4.32;2.83;;;;;;;27.85;47.92;99123.31;2063919;28;20052;-48
2023/07/08 01:58:17;;;;;;;3.72;2.47;;;;;;;27.83;48.25;99117.31;2063128;28;20050;-46
2023/07/08 01:59:18;;;;;;;2.38;2.00;;;;;;;27.82;48.13;99121.09;2060237;28;20154;-49
2023/07/08 02:00:20;;;;;;;4.47;3.10;;;;;;;27.85;47.90;99117.88;2066056;28;20066;-45
2023/07/08 02:01:22;;;;;;;4.35;3.17;;;;;;;27.82;47.84;99103.94;2062862;28;21708;-45
2023/07/08 02:02:24;;;;;;;3.47;2.40;;;;;;;27.80;47.89;99103.34;2060542;28;20058;-47
2023/07/08 02:03:26;;;;;;;2.92;2.30;;;;;;;27.80;47.96;99106.91;2062900;28;20050;-46
2023/07/08 02:04:30;;;;;;;4.90;2.70;;;;;;;27.82;47.65;99103.94;2062249;28;20054;-46
2023/07/08 02:05:32;;;;;;;4.07;2.50;;;;;;;27.79;47.75;99101.69;2061469;28;20050;-47
2023/07/08 02:06:32;;;;;;;5.90;3.08;;;;;;;27.77;47.80;99104.66;2063925;28;20046;-47
2023/07/08 02:07:34;;;;;;;2.40;2.20;;;;;;;27.79;47.68;99097.06;2063411;28;20088;-46
2023/07/08 02:08:36;;;;;;;6.72;2.88;;;;;;;27.74;47.83;99102.44;2064303;28;20409;-44
2023/07/08 02:09:38;;;;;;;2.63;2.33;;;;;;;27.77;47.62;99101.09;2062357;28;20086;-50
2023/07/08 02:10:40;;;;;;;4.07;2.35;;;;;;;27.77;47.71;99093.75;2061330;28;20146;-47
2023/07/08 02:11:41;;;;;;;3.70;2.47;;;;;;;27.75;47.57;99095.91;2062200;28;20517;-47
2023/07/08 02:12:42;;;;;;;4.35;2.35;;;;;;;27.77;47.40;99098.38;2061912;28;20330;-47
2023/07/08 02:13:44;;;;;;;3.67;2.60;;;;;;;27.75;47.31;99095.91;2062172;28;20489;-48
2023/07/08 02:14:45;;;;;;;4.50;2.78;;;;;;;27.79;47.31;99099.81;2064820;28;20107;-48
2023/07/08 02:15:47;;;;;;;4.13;2.83;;;;;;;27.80;47.49;99101.47;2064180;28;20045;-48
2023/07/08 02:16:48;;;;;;;3.78;2.67;;;;;;;27.82;47.17;99099.28;2063876;28;20054;-48
2023/07/08 02:17:50;;;;;;;4.82;2.70;;;;;;;27.81;47.10;99102.28;2063788;28;20045;-48
2023/07/08 02:18:51;;;;;;;2.78;2.30;;;;;;;27.82;47.25;99099.28;2059551;28;20244;-49
2023/07/08 02:19:52;;;;;;;3.50;2.53;;;;;;;27.84;47.10;99090.88;2063380;28;20145;-49
2023/07/08 02:20:53;;;;;;;4.07;2.63;;;;;;;27.81;47.52;99084.03;2064462;28;20053;-49
2023/07/08 02:21:55;;;;;;;3.65;2.47;;;;;;;27.81;47.42;99085.94;2061311;28;20140;-48
2023/07/08 02:22:55;;;;;;;3.22;2.70;;;;;;;27.81;47.45;99085.94;2064156;28;20077;-48
2023/07/08 02:23:59;;;;;;;3.83;2.30;;;;;;;27.84;47.52;99079.97;2063744;28;20503;-47
2023/07/08 02:24:59;;;;;;;3.47;2.55;;;;;;;27.80;47.38;99074.22;2061004;28;20557;-46
2023/07/08 02:26:01;;;;;;;5.22;2.78;;;;;;;27.81;47.63;99075.84;2064086;28;20097;-47
2023/07/08 02:27:02;;;;;;;4.00;2.63;;;;;;;27.81;47.22;99072.31;2063052;28;20081;-47
2023/07/08 02:28:04;;;;;;;3.00;2.20;;;;;;;27.77;47.83;99073.84;2063325;28;20050;-48
2023/07/08 02:29:05;;;;;;;3.78;2.47;;;;;;;27.76;47.29;99070.31;2064756;28;20054;-48
2023/07/08 02:30:08;;;;;;;3.95;2.50;;;;;;;27.74;47.53;99069.72;2061569;28;20045;-46
2023/07/08 02:31:09;;;;;;;2.80;2.50;;;;;;;27.75;47.41;99063.22;2062465;28;20825;-48
2023/07/08 02:32:11;;;;;;;8.85;3.03;;;;;;;27.75;47.42;99059.63;2065308;28;20052;-46
2023/07/08 02:33:12;;;;;;;3.40;2.55;;;;;;;27.76;47.34;99064.84;2065212;28;20133;-47
2023/07/08 02:34:13;;;;;;;2.97;2.63;;;;;;;27.76;47.44;99067.56;2063799;28;20595;-47
2023/07/08 02:35:14;;;;;;;3.55;2.55;;;;;;;27.75;47.41;99057.75;2064912;28;20436;-47
2023/07/08 02:36:16;;;;;;;6.03;2.38;;;;;;;27.77;46.79;99066.47;2059864;28;20060;-49
2023/07/08 02:37:17;;;;;;;3.00;2.38;;;;;;;27.77;47.12;99061.03;2061805;28;20682;-48
2023/07/08 02:38:18;;;;;;;4.40;2.70;;;;;;;27.76;46.92;99066.75;2063861;28;20057;-48
2023/07/08 02:39:20;;;;;;;3.75;2.70;;;;;;;27.78;46.71;99056.44;2062033;28;20057;-46
2023/07/08 02:40:23;;;;;;;4.53;2.47;;;;;;;27.79;46.62;99063.53;2064016;28;20736;-47
2023/07/08 02:41:24;;;;;;;2.42;2.22;;;;;;;27.77;47.05;99066.47;2064142;28;20042;-49
2023/07/08 02:42:25;;;;;;;3.00;2.15;;;;;;;27.76;46.96;99064.84;2063385;28;20484;-48
2023/07/08 02:43:26;;;;;;;3.25;2.47;;;;;;;27.77;46.96;99068.41;2058765;28;20108;-48
2023/07/08 02:44:28;;;;;;;2.97;2.17;;;;;;;27.77;47.04;99071.94;2063675;28;20108;-47
2023/07/08 02:45:28;;;;;;;5.65;2.50;;;;;;;27.75;46.96;99068.66;2061860;28;20060;-47
2023/07/08 02:46:30;;;;;;;3.40;3.03;;;;;;;27.76;47.19;99064.84;2064420;28;20947;-47
2023/07/08 02:47:31;;;;;;;2.33;2.10;;;;;;;27.76;46.98;99070.31;2063813;28;22456;-47
2023/07/08 02:48:32;;;;;;;4.10;2.60;;;;;;;27.75;46.69;99068.66;2063269;28;20065;-47
2023/07/08 02:49:33;;;;;;;5.07;2.60;;;;;;;27.74;46.45;99061.53;2059914;28;20136;-47
2023/07/08 02:50:35;;;;;;;4.28;2.97;;;;;;;27.75;46.49;99062.38;2064255;28;20067;-48
2023/07/08 02:51:36;;;;;;;4.07;2.50;;;;;;;27.76;46.75;99058.56;2063826;28;20054;-48
2023/07/08 02:52:38;;;;;;;3.92;2.67;;;;;;;27.77;46.48;99055.59;2063447;28;20100;-49
2023/07/08 02:53:39;;;;;;;3.38;2.53;;;;;;;27.73;46.34;99057.19;2063359;28;20050;-48
2023/07/08 02:54:42;;;;;;;6.22;3.28;;;;;;;27.77;46.65;99071.94;2062588;28;20124;-49
2023/07/08 02:55:42;;;;;;;3.25;2.47;;;;;;;27.73;46.60;99073.53;2060536;28;20204;-47
2023/07/08 02:56:44;;;;;;;4.72;3.30;;;;;;;27.73;46.53;99072.72;2063810;28;20053;-47
2023/07/08 02:57:45;;;;;;;3.42;2.28;;;;;;;27.75;46.53;99079.56;2062739;28;21010;-47
2023/07/08 02:58:46;;;;;;;4.13;3.22;;;;;;;27.73;46.24;99089.88;2064368;28;20049;-47
2023/07/08 02:59:47;;;;;;;3.53;2.60;;;;;;;27.72;46.50;99093.69;2062184;28;20828;-58
2023/07/08 03:00:52;;;;;;;4.75;2.85;;;;;;;27.66;46.06;99086.50;2063834;28;20053;-47
2023/07/08 03:01:53;;;;;;;6.95;2.90;;;;;;;27.59;46.60;99085.88;2059223;28;20057;-47
2023/07/08 03:02:55;;;;;;;4.68;2.50;;;;;;;27.56;46.41;99081.75;2063484;28;20053;-47
2023/07/08 03:03:58;;;;;;;3.50;2.53;;;;;;;27.59;46.13;99077.72;2061434;28;20121;-47
2023/07/08 03:05:00;;;;;;;7.88;3.15;;;;;;;27.61;46.16;99075.56;2064422;28;20049;-47
2023/07/08 03:06:05;;;;;;;3.72;1.83;;;;;;;27.66;46.21;99075.59;2061797;28;20652;-47
2023/07/08 03:07:11;;;;;;;3.63;2.85;;;;;;;27.65;46.29;99070.44;2061499;28;20080;-46
2023/07/08 03:08:11;;;;;;;3.80;2.78;;;;;;;27.64;46.74;99083.25;2059997;28;20050;-50
2023/07/08 03:09:13;;;;;;;5.00;2.42;;;;;;;27.55;46.73;99079.28;2063105;28;20038;-47
2023/07/08 03:10:16;;;;;;;3.67;2.72;;;;;;;27.56;46.09;99078.22;2064546;28;20046;-46
2023/07/08 03:11:16;;;;;;;2.85;2.30;;;;;;;27.60;46.39;99074.72;2063611;28;20527;-47
2023/07/08 03:12:18;;;;;;;4.25;2.90;;;;;;;27.61;46.11;99070.13;2062570;28;20046;-47
2023/07/08 03:13:19;;;;;;;3.65;2.65;;;;;;;27.61;46.24;99067.41;2063266;28;20053;-47
2023/07/08 03:14:20;;;;;;;3.38;2.75;;;;;;;27.62;46.22;99060.84;2057853;28;20053;-46
2023/07/08 03:15:21;;;;;;;3.45;2.40;;;;;;;27.60;46.53;99054.81;2061629;28;20100;-45
2023/07/08 03:16:23;;;;;;;3.67;3.08;;;;;;;27.56;46.56;99051.78;2061676;28;20054;-47
2023/07/08 03:17:24;;;;;;;4.70;2.80;;;;;;;27.49;46.60;99058.50;2062866;28;20054;-48
2023/07/08 03:18:26;;;;;;;6.88;2.58;;;;;;;27.46;46.34;99056.28;2062533;28;20142;-48
2023/07/08 03:19:27;;;;;;;4.43;2.42;;;;;;;27.46;46.73;99048.09;2063253;28;20719;-45
2023/07/08 03:20:32;;;;;;;3.00;2.45;;;;;;;27.43;46.96;99049.44;2057015;28;20136;-46
2023/07/08 03:21:33;;;;;;;3.22;2.60;;;;;;;27.39;46.66;99051.84;2061888;28;20132;-49
2023/07/08 03:22:34;;;;;;;5.88;3.00;;;;;;;27.41;47.00;99051.56;2061409;28;20049;-46
2023/07/08 03:23:35;;;;;;;3.15;2.70;;;;;;;27.36;46.79;99051.53;2061562;28;20137;-47
2023/07/08 03:24:37;;;;;;;3.47;2.63;;;;;;;27.34;47.10;99046.31;2060686;28;20045;-47
2023/07/08 03:25:39;;;;;;;3.72;2.97;;;;;;;27.43;46.71;99059.50;2060580;28;20049;-46
2023/07/08 03:26:40;;;;;;;2.92;2.40;;;;;;;27.41;46.98;99054.28;2056046;28;20080;-49
2023/07/08 03:27:43;;;;;;;3.90;2.35;;;;;;;27.38;46.61;99052.91;2061099;28;20137;-48
2023/07/08 03:28:46;;;;;;;5.40;3.22;;;;;;;27.33;46.65;99052.00;2061862;28;20046;-48
2023/07/08 03:29:46;;;;;;;2.60;2.08;;;;;;;27.34;46.52;99051.75;2062407;28;20058;-47
2023/07/08 03:30:53;;;;;;;8.20;3.00;;;;;;;27.40;46.25;99056.22;2061345;28;20050;-47
2023/07/08 03:31:54;;;;;;;7.53;2.95;;;;;;;27.41;46.51;99057.03;2063527;28;20444;-49
2023/07/08 03:32:56;;;;;;;2.88;1.92;;;;;;;27.46;46.15;99051.66;2056877;28;20054;-46
2023/07/08 03:33:56;;;;;;;3.38;2.35;;;;;;;27.48;46.54;99054.13;2062811;28;20711;-46
2023/07/08 03:34:58;;;;;;;4.93;2.30;;;;;;;27.49;46.23;99039.44;2062975;28;20053;-47
2023/07/08 03:35:59;;;;;;;6.28;2.53;;;;;;;27.51;46.23;99050.91;2061933;28;20057;-49
2023/07/08 03:37:00;;;;;;;5.18;3.08;;;;;;;27.49;46.47;99050.31;2061844;28;20049;-49
2023/07/08 03:38:01;;;;;;;4.25;2.58;;;;;;;27.51;46.64;99046.28;2061939;28;20100;-48
2023/07/08 03:39:03;;;;;;;4.70;2.72;;;;;;;27.51;46.24;99043.56;2056802;28;21051;-46
2023/07/08 03:40:09;;;;;;;4.78;2.90;;;;;;;27.52;46.36;99049.81;2060827;28;20065;-45
2023/07/08 03:41:12;;;;;;;3.45;2.30;;;;;;;27.53;46.47;99038.69;2061468;28;20057;-46
2023/07/08 03:42:13;;;;;;;3.53;2.72;;;;;;;27.52;46.26;99041.66;2060868;28;20046;-47
2023/07/08 03:43:14;;;;;;;4.25;2.65;;;;;;;27.52;46.30;99039.75;2062622;28;20131;-47
2023/07/08 03:44:15;;;;;;;4.10;2.45;;;;;;;27.55;46.08;99038.41;2062650;28;20137;-47
2023/07/08 03:45:16;;;;;;;2.47;2.10;;;;;;;27.50;46.25;99032.91;2058129;28;20054;-45
2023/07/08 03:46:20;;;;;;;5.22;2.40;;;;;;;27.51;46.08;99034.56;2064010;28;20061;-47
2023/07/08 03:47:21;;;;;;;3.67;2.42;;;;;;;27.47;45.83;99027.94;2062359;28;20061;-46
2023/07/08 03:48:22;;;;;;;4.63;2.75;;;;;;;27.44;45.77;99031.19;2061052;28;20192;-47
2023/07/08 03:49:23;;;;;;;3.95;2.88;;;;;;;27.42;45.77;99025.19;2061723;28;20184;-48
2023/07/08 03:50:27;;;;;;;4.07;2.60;;;;;;;27.35;46.18;99031.63;2062719;28;20723;-49
2023/07/08 03:51:31;;;;;;;6.03;2.50;;;;;;;27.38;45.95;99033.00;2060767;28;20088;-48
2023/07/08 03:52:33;;;;;;;4.80;2.50;;;;;;;27.43;46.02;99027.63;2062112;28;20042;-47
2023/07/08 03:53:33;;;;;;;2.63;2.30;;;;;;;27.46;45.75;99034.50;2060584;28;20152;-52
2023/07/08 03:54:35;;;;;;;3.30;2.70;;;;;;;27.48;45.80;99040.50;2062365;28;20046;-52
2023/07/08 03:55:36;;;;;;;4.45;2.47;;;;;;;27.47;46.06;99036.97;2062947;28;20054;-51
2023/07/08 03:56:39;;;;;;;4.03;2.42;;;;;;;27.47;46.07;99038.84;2064692;28;20112;-51
2023/07/08 03:57:40;;;;;;;20.20;5.95;;;;;;;27.47;45.93;99036.97;2057392;28;20042;-46
2023/07/08 03:58:42;;;;;;;18.20;6.05;;;;;;;27.52;46.19;99041.66;2061102;28;20058;-53
2023/07/08 03:59:42;;;;;;;15.68;4.72;;;;;;;27.49;46.20;99037.53;2061126;28;20463;-55
2023/07/08 04:00:44;;;;;;;9.75;3.83;;;;;;;27.52;45.71;99041.66;2063941;28;20041;-54
2023/07/08 04:01:45;;;;;;;12.77;3.53;;;;;;;27.52;45.88;99033.47;2061655;28;20078;-52
2023/07/08 04:02:47;;;;;;;5.40;3.28;;;;;;;27.51;45.93;99037.28;2060429;28;20363;-50
2023/07/08 04:03:50;;;;;;;8.80;3.05;;;;;;;27.48;45.81;99043.25;2056782;28;20050;-52
2023/07/08 04:04:51;;;;;;;4.18;2.70;;;;;;;27.49;46.09;99042.16;2062640;28;20092;-46
2023/07/08 04:05:52;;;;;;;7.15;3.72;;;;;;;27.51;45.87;99056.34;2063574;28;20290;-48
2023/07/08 04:06:54;;;;;;;7.20;2.95;;;;;;;27.51;45.88;99057.16;2059658;28;20053;-46
2023/07/08 04:07:55;;;;;;;5.05;2.47;;;;;;;27.52;45.65;99047.09;2060035;28;20050;-47
2023/07/08 04:08:57;;;;;;;7.70;3.67;;;;;;;27.53;46.16;99056.94;2063397;28;20060;-48
2023/07/08 04:09:57;;;;;;;6.22;3.00;;;;;;;27.55;46.13;99046.59;2058680;28;20141;-47
2023/07/08 04:10:59;;;;;;;5.95;3.35;;;;;;;27.54;46.47;99055.84;2061611;28;20681;-47
2023/07/08 04:12:01;;;;;;;9.50;2.33;;;;;;;27.56;46.33;99046.34;2063630;28;20049;-47
2023/07/08 04:13:03;;;;;;;4.75;2.75;;;;;;;27.58;46.05;99043.34;2061058;28;20645;-49
2023/07/08 04:14:04;;;;;;;3.78;2.53;;;;;;;27.57;46.08;99039.81;2062106;28;20077;-47
2023/07/08 04:15:08;;;;;;;3.40;2.42;;;;;;;27.55;45.62;99035.69;2062804;28;20046;-49
2023/07/08 04:16:16;;;;;;;7.55;2.78;;;;;;;27.53;46.29;99026.97;2056707;28;20050;-47
2023/07/08 04:17:19;;;;;;;4.97;2.90;;;;;;;27.50;46.23;99027.47;2062514;28;20145;-46
2023/07/08 04:18:20;;;;;;;4.93;3.00;;;;;;;27.50;46.16;99022.03;2063270;28;20119;-47
2023/07/08 04:19:23;;;;;;;4.28;2.38;;;;;;;27.53;46.31;99022.34;2060707;28;20050;-47
2023/07/08 04:20:23;;;;;;;4.20;2.42;;;;;;;27.52;46.14;99017.13;2061495;28;20725;-48
2023/07/08 04:21:26;;;;;;;4.25;2.40;;;;;;;27.49;46.24;99012.19;2061279;28;20052;-47
2023/07/08 04:22:26;;;;;;;3.85;2.80;;;;;;;27.48;46.31;99010.53;2057243;28;20131;-48
2023/07/08 04:23:28;;;;;;;3.35;2.10;;;;;;;27.47;46.19;99007.00;2059503;28;20444;-48
2023/07/08 04:24:29;;;;;;;4.65;3.08;;;;;;;27.45;46.42;99000.16;2063296;28;20180;-49
2023/07/08 04:25:32;;;;;;;3.80;2.83;;;;;;;27.46;46.26;99004.53;2061158;28;20194;-50
2023/07/08 04:26:35;;;;;;;6.70;3.55;;;;;;;27.43;46.37;98994.13;2062004;28;20045;-48
2023/07/08 04:27:38;;;;;;;4.00;2.78;;;;;;;27.42;46.15;98989.78;2062826;28;20081;-52
2023/07/08 04:28:39;;;;;;;2.95;2.33;;;;;;;27.41;46.34;98991.66;2058265;28;20047;-48
2023/07/08 04:29:41;;;;;;;8.07;3.85;;;;;;;27.43;46.07;98986.78;2063434;28;20437;-48
2023/07/08 04:30:42;;;;;;;5.82;2.50;;;;;;;27.44;46.22;98988.41;2065108;28;20053;-48
2023/07/08 04:31:44;;;;;;;5.55;2.47;;;;;;;27.46;46.00;98993.63;2060357;28;20439;-46
2023/07/08 04:32:45;;;;;;;3.55;2.22;;;;;;;27.46;46.18;99005.34;2061853;28;20046;-47
2023/07/08 04:33:46;;;;;;;4.07;3.30;;;;;;;27.48;46.35;99018.72;2063796;28;20045;-48
2023/07/08 04:34:47;;;;;;;2.78;2.30;;;;;;;27.48;46.14;99026.88;2056758;28;20090;-53
2023/07/08 04:35:49;;;;;;;3.65;2.60;;;;;;;27.48;45.90;99030.44;2063305;28;20474;-48
2023/07/08 04:36:49;;;;;;;2.80;2.20;;;;;;;27.47;45.48;99030.66;2060823;28;20064;-48
2023/07/08 04:37:51;;;;;;;4.22;2.80;;;;;;;27.47;45.46;99036.13;2061457;28;20053;-48
2023/07/08 04:38:52;;;;;;;2.70;2.20;;;;;;;27.46;45.48;99038.03;2063323;28;20133;-48
2023/07/08 04:39:54;;;;;;;3.83;2.17;;;;;;;27.46;44.91;99037.22;2063041;28;20050;-48
2023/07/08 04:40:55;;;;;;;4.30;2.50;;;;;;;27.44;44.82;99025.72;2057357;28;20054;-47
2023/07/08 04:41:57;;;;;;;4.50;2.22;;;;;;;27.46;44.88;99029.84;2061150;28;20626;-48
2023/07/08 04:42:59;;;;;;;3.55;2.53;;;;;;;27.45;45.10;99021.94;2063093;28;20082;-47
2023/07/08 04:44:02;;;;;;;4.55;2.50;;;;;;;27.46;44.89;99029.84;2061056;28;20046;-48
2023/07/08 04:45:05;;;;;;;4.85;2.75;;;;;;;27.45;44.94;99032.84;2063667;28;20148;-48
2023/07/08 04:46:34;;;;;;;4.57;2.90;;;;;;;27.40;45.21;99034.41;2062693;28;20054;-47
2023/07/08 04:47:35;;;;;;;7.90;3.25;;;;;;;27.44;45.35;99040.16;2056181;28;20421;-48
2023/07/08 04:48:37;;;;;;;3.00;2.47;;;;;;;27.44;45.07;99042.06;2059829;28;20046;-48
2023/07/08 04:49:41;;;;;;;4.30;2.28;;;;;;;27.45;45.07;99038.28;2062645;28;20145;-49
2023/07/08 04:50:44;;;;;;;5.22;2.80;;;;;;;27.46;45.29;99048.94;2061936;28;20100;-49
2023/07/08 04:51:45;;;;;;;3.42;2.55;;;;;;;27.46;45.01;99045.38;2062729;28;20054;-47
2023/07/08 04:52:47;;;;;;;4.55;2.08;;;;;;;27.47;45.00;99055.19;2061750;28;20054;-47
2023/07/08 04:53:48;;;;;;;4.72;3.00;;;;;;;27.42;45.12;99053.25;2058342;28;20481;-48